createdAt,value
2023-05-12T00:01:00.288Z,14.40
2023-05-12T00:03:28.723Z,14.30
2023-05-12T00:05:57.134Z,14.30
2023-05-12T00:08:25.332Z,14.30
2023-05-12T00:10:54.963Z,14.30
2023-05-12T00:13:24.410Z,14.20
2023-05-12T00:15:55.096Z,14.20
2023-05-12T00:18:23.414Z,14.20
2023-05-12T00:20:54.167Z,14.10
2023-05-12T00:23:22.953Z,14.10
2023-05-12T00:25:51.309Z,14.00
2023-05-12T00:28:21.408Z,14.00
2023-05-12T00:30:49.616Z,13.90
2023-05-12T00:33:17.940Z,13.90
2023-05-12T00:35:46.399Z,13.80
2023-05-12T00:38:14.733Z,13.80
2023-05-12T00:40:43.137Z,13.70
2023-05-12T00:43:11.583Z,13.60
2023-05-12T00:45:41.451Z,13.60
2023-05-12T00:48:09.924Z,13.50
2023-05-12T00:50:38.355Z,13.50
2023-05-12T00:53:08.907Z,13.40
2023-05-12T00:55:37.955Z,13.40
2023-05-12T00:58:07.273Z,13.40
2023-05-12T01:00:35.549Z,13.40
2023-05-12T01:03:05.878Z,13.30
2023-05-12T01:05:40.698Z,13.30
2023-05-12T01:08:10.087Z,13.20
2023-05-12T01:10:38.443Z,13.20
2023-05-12T01:13:06.755Z,13.20
2023-05-12T01:15:35.269Z,13.10
2023-05-12T01:18:06.712Z,13.10
2023-05-12T01:20:36.026Z,13.20
2023-05-12T01:23:05.472Z,13.10
2023-05-12T01:25:34.950Z,13.10
2023-05-12T01:28:07.479Z,13.10
2023-05-12T01:30:36.292Z,13.00
2023-05-12T01:33:04.629Z,13.00
2023-05-12T01:35:33.013Z,12.90
2023-05-12T01:38:01.256Z,12.90
2023-05-12T01:40:29.478Z,12.90
2023-05-12T01:42:57.758Z,12.90
2023-05-12T01:45:27.365Z,12.90
2023-05-12T01:47:55.723Z,12.80
2023-05-12T01:50:24.040Z,12.80
2023-05-12T01:52:52.234Z,12.70
2023-05-12T01:55:20.594Z,12.70
2023-05-12T01:57:48.810Z,12.70
2023-05-12T02:00:17.640Z,12.70
2023-05-12T02:02:47.740Z,12.70
2023-05-12T02:05:16.144Z,12.60
2023-05-12T02:07:44.447Z,12.60
2023-05-12T02:10:12.892Z,12.60
2023-05-12T02:12:41.119Z,12.60
2023-05-12T02:15:10.357Z,12.50
2023-05-12T02:17:38.763Z,12.60
2023-05-12T02:20:12.117Z,12.60
2023-05-12T02:22:40.510Z,12.50
2023-05-12T02:25:09.512Z,12.60
2023-05-12T02:27:37.775Z,12.60
2023-05-12T02:30:07.356Z,12.60
2023-05-12T02:32:35.711Z,12.60
2023-05-12T02:35:04.173Z,12.50
2023-05-12T02:37:34.513Z,12.50
2023-05-12T02:40:02.809Z,12.50
2023-05-12T02:42:35.665Z,12.60
2023-05-12T02:45:04.326Z,12.50
2023-05-12T02:47:33.132Z,12.50
2023-05-12T02:50:01.835Z,12.50
2023-05-12T02:52:30.261Z,12.50
2023-05-12T02:54:59.911Z,12.60
2023-05-12T02:57:34.184Z,12.60
2023-05-12T03:00:04.722Z,12.50
2023-05-12T03:02:33.169Z,12.60
2023-05-12T03:05:08.998Z,12.50
2023-05-12T03:07:37.327Z,12.60
2023-05-12T03:10:08.200Z,12.60
2023-05-12T03:12:36.558Z,12.60
2023-05-12T03:15:05.853Z,12.60
2023-05-12T03:17:34.136Z,12.60
2023-05-12T03:20:02.785Z,12.60
2023-05-12T03:22:31.253Z,12.60
2023-05-12T03:24:59.516Z,12.60
2023-05-12T03:27:29.188Z,12.70
2023-05-12T03:29:57.686Z,12.70
2023-05-12T03:32:25.989Z,12.80
2023-05-12T03:34:54.248Z,12.80
2023-05-12T03:37:22.502Z,12.80
2023-05-12T03:39:50.648Z,12.90
2023-05-12T03:42:19.328Z,12.90
2023-05-12T03:44:48.951Z,13.00
2023-05-12T03:47:17.266Z,13.00
2023-05-12T03:49:45.565Z,13.10
2023-05-12T03:52:14.127Z,13.10
2023-05-12T03:54:42.396Z,13.20
2023-05-12T03:57:10.617Z,13.20
2023-05-12T03:59:38.895Z,13.30
2023-05-12T04:02:11.845Z,13.30
2023-05-12T04:04:40.234Z,13.30
2023-05-12T04:07:08.526Z,13.30
2023-05-12T04:09:36.701Z,13.40
2023-05-12T04:12:05.593Z,13.40
2023-05-12T04:14:42.281Z,13.40
2023-05-12T04:17:12.613Z,13.50
2023-05-12T04:19:40.872Z,13.50
2023-05-12T04:22:09.131Z,13.50
2023-05-12T04:24:39.380Z,13.50
2023-05-12T04:27:08.125Z,13.60
2023-05-12T04:29:36.315Z,13.60
2023-05-12T04:32:04.741Z,13.60
2023-05-12T04:34:34.371Z,13.70
2023-05-12T04:37:02.806Z,13.70
2023-05-12T04:39:31.027Z,13.80
2023-05-12T04:42:00.973Z,13.80
2023-05-12T04:44:29.474Z,13.80
2023-05-12T04:46:58.133Z,13.90
2023-05-12T04:49:26.651Z,13.90
2023-05-12T04:51:56.280Z,14.00
2023-05-12T04:54:24.631Z,14.00
2023-05-12T04:56:53.003Z,14.00
2023-05-12T04:59:21.581Z,14.10
2023-05-12T05:01:50.050Z,14.20
2023-05-12T05:04:18.473Z,14.20
2023-05-12T05:06:46.800Z,14.30
2023-05-12T05:09:16.446Z,14.30
2023-05-12T05:11:44.714Z,14.30
2023-05-12T05:14:13.029Z,14.40
2023-05-12T05:16:41.545Z,14.50
2023-05-12T05:19:19.472Z,14.60
2023-05-12T05:21:50.752Z,14.60
2023-05-12T05:24:20.448Z,14.70
2023-05-12T05:26:48.852Z,14.70
2023-05-12T05:29:17.320Z,14.80
2023-05-12T05:31:45.810Z,14.80
2023-05-12T05:34:14.119Z,14.90
2023-05-12T05:36:42.399Z,14.90
2023-05-12T05:39:15.452Z,15.00
2023-05-12T05:41:51.369Z,15.00
2023-05-12T05:44:19.645Z,15.10
2023-05-12T05:46:47.987Z,15.10
2023-05-12T05:49:16.345Z,15.20
2023-05-12T05:51:44.685Z,15.30
2023-05-12T05:54:13.200Z,15.30
2023-05-12T05:56:41.737Z,15.40
2023-05-12T05:59:11.364Z,15.50
2023-05-12T06:01:39.627Z,15.50
2023-05-12T06:04:07.918Z,15.50
2023-05-12T06:06:36.232Z,15.60
2023-05-12T06:09:04.576Z,15.60
2023-05-12T06:11:32.834Z,15.70
2023-05-12T06:14:01.109Z,15.80
2023-05-12T06:16:30.781Z,15.80
2023-05-12T06:19:01.040Z,15.90
2023-05-12T06:21:29.396Z,15.90
2023-05-12T06:23:59.678Z,16.00
2023-05-12T06:26:28.004Z,16.10
2023-05-12T06:28:56.306Z,16.10
2023-05-12T06:31:24.805Z,16.20
2023-05-12T06:33:54.428Z,16.20
2023-05-12T06:36:22.742Z,16.20
2023-05-12T06:38:52.292Z,16.20
2023-05-12T06:41:22.104Z,16.30
2023-05-12T06:43:50.493Z,16.40
2023-05-12T06:46:18.891Z,16.40
2023-05-12T06:48:47.296Z,16.40
2023-05-12T06:51:17.109Z,16.50
2023-05-12T06:53:45.462Z,16.50
2023-05-12T06:56:17.035Z,16.60
2023-05-12T06:58:45.348Z,16.60
2023-05-12T07:01:13.666Z,16.60
2023-05-12T07:03:42.128Z,16.70
2023-05-12T07:06:11.152Z,16.80
2023-05-12T07:08:40.851Z,16.70
2023-05-12T07:11:09.106Z,16.80
2023-05-12T07:13:38.115Z,16.80
2023-05-12T07:16:07.506Z,16.90
2023-05-12T07:18:35.987Z,16.90
2023-05-12T07:21:04.353Z,17.00
2023-05-12T07:23:32.665Z,17.00
2023-05-12T07:26:02.474Z,17.00
2023-05-12T07:28:32.387Z,17.00
2023-05-12T07:31:00.682Z,17.10
2023-05-12T07:33:28.957Z,17.10
2023-05-12T07:35:57.663Z,17.10
2023-05-12T07:38:26.224Z,17.10
2023-05-12T07:40:54.538Z,17.10
2023-05-12T07:43:24.280Z,17.10
2023-05-12T07:45:56.234Z,17.20
2023-05-12T07:48:24.642Z,17.20
2023-05-12T07:50:53.033Z,17.30
2023-05-12T07:53:21.575Z,17.40
2023-05-12T07:55:49.922Z,17.40
2023-05-12T07:58:18.418Z,17.40
2023-05-12T08:00:48.133Z,17.40
2023-05-12T08:03:17.103Z,17.40
2023-05-12T08:05:45.454Z,17.50
2023-05-12T08:08:16.789Z,17.50
2023-05-12T08:10:45.122Z,17.50
2023-05-12T08:13:13.430Z,17.50
2023-05-12T08:15:41.618Z,17.50
2023-05-12T08:18:11.395Z,17.60
2023-05-12T08:20:39.706Z,17.60
2023-05-12T08:23:07.997Z,17.60
2023-05-12T08:25:37.289Z,17.60
2023-05-12T08:28:05.475Z,17.70
2023-05-12T08:30:33.857Z,17.70
2023-05-12T08:33:02.259Z,17.70
2023-05-12T08:35:32.213Z,17.80
2023-05-12T08:38:01.365Z,17.80
2023-05-12T08:40:32.450Z,17.70
2023-05-12T08:43:08.977Z,17.70
2023-05-12T08:45:38.487Z,17.80
2023-05-12T08:48:09.928Z,17.80
2023-05-12T08:50:42.198Z,17.90
2023-05-12T08:53:12.597Z,17.90
2023-05-12T08:55:46.073Z,18.00
2023-05-12T08:58:25.299Z,18.10
2023-05-12T09:01:05.147Z,18.10
2023-05-12T09:03:34.411Z,18.20
2023-05-12T09:06:06.806Z,18.20
2023-05-12T09:08:35.906Z,18.20
2023-05-12T09:11:07.066Z,18.20
2023-05-12T09:13:41.995Z,18.20
2023-05-12T09:16:13.878Z,18.30
2023-05-12T09:18:50.564Z,18.20
2023-05-12T09:21:20.683Z,18.20
2023-05-12T09:24:11.806Z,18.30
2023-05-12T09:26:51.409Z,18.30
2023-05-12T09:32:08.748Z,18.20
2023-05-12T09:34:40.989Z,18.20
2023-05-12T09:37:12.659Z,18.10
2023-05-12T09:39:42.189Z,18.20
2023-05-12T09:42:13.282Z,18.10
2023-05-12T09:44:42.385Z,18.10
2023-05-12T09:47:11.017Z,18.10
2023-05-12T09:49:39.197Z,18.10
2023-05-12T09:52:10.528Z,18.10
2023-05-12T09:54:41.279Z,18.20
2023-05-12T09:57:13.936Z,18.20
2023-05-12T09:59:43.889Z,18.20
2023-05-12T10:02:16.456Z,18.20
2023-05-12T10:04:48.668Z,18.20
2023-05-12T10:07:19.622Z,18.20
2023-05-12T10:09:50.565Z,18.30
2023-05-12T10:12:18.812Z,18.20
2023-05-12T10:14:49.394Z,18.20
2023-05-12T10:17:19.854Z,18.30
2023-05-12T10:19:50.205Z,18.30
2023-05-12T10:22:26.449Z,18.30
2023-05-12T10:25:02.747Z,18.40
2023-05-12T10:27:33.864Z,18.40
2023-05-12T10:30:03.945Z,18.40
2023-05-12T10:32:32.496Z,18.40
2023-05-12T10:35:09.474Z,18.40
2023-05-12T10:37:39.142Z,18.40
2023-05-12T10:40:11.155Z,18.40
2023-05-12T10:42:40.777Z,18.40
2023-05-12T10:45:18.690Z,18.40
2023-05-12T10:47:47.835Z,18.40
2023-05-12T10:50:16.582Z,18.40
2023-05-12T10:53:03.185Z,18.40
2023-05-12T10:55:45.669Z,18.50
2023-05-12T10:58:14.804Z,18.50
2023-05-12T11:00:50.763Z,18.50
2023-05-12T11:03:25.924Z,18.50
2023-05-12T11:06:01.112Z,18.50
2023-05-12T11:08:32.274Z,18.60
2023-05-12T11:11:04.205Z,18.60
2023-05-12T11:13:32.669Z,18.70
2023-05-12T11:16:00.960Z,18.70
2023-05-12T11:18:29.454Z,18.80
2023-05-12T11:20:58.077Z,18.80
2023-05-12T11:23:28.784Z,18.80
2023-05-12T11:25:57.403Z,18.90
2023-05-12T11:28:27.194Z,18.90
2023-05-12T11:30:56.108Z,19.00
2023-05-12T11:33:24.706Z,19.00
2023-05-12T11:35:53.064Z,19.00
2023-05-12T11:38:24.437Z,19.10
2023-05-12T11:40:52.694Z,19.10
2023-05-12T11:43:22.553Z,19.10
2023-05-12T11:45:52.314Z,19.10
2023-05-12T11:48:21.682Z,19.00
2023-05-12T11:50:51.826Z,19.10
2023-05-12T11:53:20.532Z,19.10
2023-05-12T11:55:51.028Z,19.10
2023-05-12T11:58:25.990Z,19.10
2023-05-12T12:00:57.172Z,19.20
2023-05-12T12:03:26.482Z,19.20
2023-05-12T12:06:02.352Z,19.30
2023-05-12T12:08:31.032Z,19.40
2023-05-12T12:11:01.353Z,19.40
2023-05-12T12:13:31.199Z,19.50
2023-05-12T12:16:00.915Z,19.60
2023-05-12T12:18:29.260Z,19.70
2023-05-12T12:20:57.798Z,19.90
2023-05-12T12:23:26.016Z,20.00
2023-05-12T12:25:54.286Z,20.10
2023-05-12T12:28:22.567Z,20.20
2023-05-12T12:30:50.827Z,20.20
2023-05-12T12:33:20.755Z,20.30
2023-05-12T12:35:49.210Z,20.40
2023-05-12T12:38:17.660Z,20.40
2023-05-12T12:40:46.094Z,20.50
2023-05-12T12:43:14.258Z,20.50
2023-05-12T12:45:42.527Z,20.50
2023-05-12T12:48:10.848Z,20.50
2023-05-12T12:50:40.559Z,20.40
2023-05-12T12:53:09.808Z,20.50
2023-05-12T12:55:38.819Z,20.40
2023-05-12T12:58:07.136Z,20.40
2023-05-12T13:00:35.462Z,20.40
2023-05-12T13:03:03.923Z,20.30
2023-05-12T13:05:32.293Z,20.40
2023-05-12T13:08:02.100Z,20.30
2023-05-12T13:10:30.612Z,20.30
2023-05-12T13:12:58.850Z,20.40
2023-05-12T13:15:27.128Z,20.40
2023-05-12T13:17:55.660Z,20.30
2023-05-12T13:20:23.885Z,20.30
2023-05-12T13:22:52.120Z,20.40
2023-05-12T13:25:21.991Z,20.40
2023-05-12T13:27:50.789Z,20.40
2023-05-12T13:30:19.002Z,20.40
2023-05-12T13:32:48.313Z,20.40
2023-05-12T13:35:16.553Z,20.40
2023-05-12T13:37:44.862Z,20.40
2023-05-12T13:40:13.857Z,20.50
2023-05-12T13:42:43.435Z,20.50
2023-05-12T13:45:12.643Z,20.50
2023-05-12T13:47:40.927Z,20.60
2023-05-12T13:50:10.153Z,20.60
2023-05-12T13:52:38.412Z,20.60
2023-05-12T13:55:07.378Z,20.60
2023-05-12T13:57:35.828Z,20.70
2023-05-12T14:00:07.478Z,20.70
2023-05-12T14:02:36.143Z,20.70
2023-05-12T14:05:04.601Z,20.70
2023-05-12T14:07:32.865Z,20.70
2023-05-12T14:10:01.646Z,20.70
2023-05-12T14:12:30.175Z,20.70
2023-05-12T14:15:11.244Z,20.70
2023-05-12T14:17:49.216Z,20.70
2023-05-12T14:20:17.579Z,20.70
2023-05-12T14:22:45.833Z,20.70
2023-05-12T14:25:14.185Z,20.60
2023-05-12T14:27:42.518Z,20.60
2023-05-12T14:30:11.978Z,20.60
2023-05-12T14:32:40.311Z,20.70
2023-05-12T14:35:10.753Z,20.70
2023-05-12T14:37:39.075Z,20.60
2023-05-12T14:40:08.570Z,20.60
2023-05-12T14:42:56.300Z,20.60
2023-05-12T14:45:25.828Z,20.60
2023-05-12T14:47:54.643Z,20.50
2023-05-12T14:50:24.391Z,20.50
2023-05-12T14:52:52.695Z,20.40
2023-05-12T14:55:21.120Z,20.40
2023-05-12T14:57:49.668Z,20.40
2023-05-12T15:00:18.628Z,20.40
2023-05-12T15:02:46.991Z,20.30
2023-05-12T15:05:15.891Z,20.30
2023-05-12T15:07:45.573Z,20.30
2023-05-12T15:10:13.928Z,20.30
2023-05-12T15:12:42.211Z,20.30
2023-05-12T15:15:11.865Z,20.30
2023-05-12T15:17:40.566Z,20.20
2023-05-12T15:20:10.057Z,20.20
2023-05-12T15:22:38.505Z,20.10
2023-05-12T15:25:09.807Z,20.10
2023-05-12T15:27:38.238Z,20.10
2023-05-12T15:30:07.949Z,20.10
2023-05-12T15:32:36.301Z,20.10
2023-05-12T15:35:04.680Z,20.00
2023-05-12T15:37:32.887Z,20.00
2023-05-12T15:40:01.273Z,20.00
2023-05-12T15:42:33.307Z,19.90
2023-05-12T15:45:01.840Z,19.90
2023-05-12T15:47:30.251Z,19.90
2023-05-12T15:49:58.652Z,19.80
2023-05-12T15:52:27.755Z,19.80
2023-05-12T15:54:55.942Z,19.80
2023-05-12T15:57:24.232Z,19.70
2023-05-12T15:59:58.676Z,19.70
2023-05-12T16:02:27.130Z,19.70
2023-05-12T16:04:55.413Z,19.60
2023-05-12T16:07:23.744Z,19.60
2023-05-12T16:09:51.978Z,19.60
2023-05-12T16:12:20.153Z,19.60
2023-05-12T16:14:48.414Z,19.60
2023-05-12T16:17:18.140Z,19.60
2023-05-12T16:19:46.674Z,19.50
2023-05-12T16:22:15.552Z,19.50
2023-05-12T16:24:43.839Z,19.50
2023-05-12T16:27:12.144Z,19.50
2023-05-12T16:29:40.308Z,19.40
2023-05-12T16:32:08.827Z,19.40
2023-05-12T16:34:39.018Z,19.40
2023-05-12T16:37:07.370Z,19.30
2023-05-12T16:39:36.741Z,19.30
2023-05-12T16:42:06.063Z,19.20
2023-05-12T16:44:34.374Z,19.20
2023-05-12T16:47:02.634Z,19.10
2023-05-12T16:49:30.914Z,19.10
2023-05-12T16:52:00.857Z,19.10
2023-05-12T16:54:29.238Z,19.10
2023-05-12T16:56:59.124Z,19.10
2023-05-12T16:59:28.008Z,19.10
2023-05-12T17:01:56.219Z,19.10
2023-05-12T17:04:24.696Z,19.00
2023-05-12T17:06:53.138Z,19.00
2023-05-12T17:09:23.427Z,19.00
2023-05-12T17:11:51.863Z,19.00
2023-05-12T17:14:20.127Z,19.00
2023-05-12T17:16:48.408Z,19.00
2023-05-12T17:19:17.063Z,18.90
2023-05-12T17:21:47.807Z,18.90
2023-05-12T17:24:16.324Z,18.90
2023-05-12T17:26:46.712Z,18.90
2023-05-12T17:29:15.168Z,18.80
2023-05-12T17:31:43.474Z,18.90
2023-05-12T17:34:11.886Z,18.80
2023-05-12T17:36:40.124Z,18.80
2023-05-12T17:39:08.323Z,18.80
2023-05-12T17:41:36.635Z,18.80
2023-05-12T17:44:06.584Z,18.80
2023-05-12T17:46:34.845Z,18.80
2023-05-12T17:49:03.102Z,18.80
2023-05-12T17:51:31.324Z,18.70
2023-05-12T17:53:59.663Z,18.70
2023-05-12T17:56:28.856Z,18.70
2023-05-12T17:58:57.085Z,18.70
2023-05-12T18:01:32.001Z,18.70
2023-05-12T18:04:00.283Z,18.60
2023-05-12T18:06:32.813Z,18.60
2023-05-12T18:09:01.136Z,18.60
2023-05-12T18:11:29.758Z,18.60
2023-05-12T18:13:58.693Z,18.60
2023-05-12T18:16:29.678Z,18.60
2023-05-12T18:18:58.502Z,18.60
2023-05-12T18:21:26.943Z,18.60
2023-05-12T18:23:55.451Z,18.50
2023-05-12T18:26:23.938Z,18.50
2023-05-12T18:28:55.046Z,18.50
2023-05-12T18:31:23.562Z,18.50
2023-05-12T18:33:53.521Z,18.50
2023-05-12T18:36:21.736Z,18.40
2023-05-12T18:38:49.995Z,18.40
2023-05-12T18:41:18.936Z,18.40
2023-05-12T18:43:48.199Z,18.40
2023-05-12T18:46:16.569Z,18.40
2023-05-12T18:48:45.135Z,18.40
2023-05-12T18:51:14.949Z,18.40
2023-05-12T18:53:43.241Z,18.30
2023-05-12T18:56:11.486Z,18.30
2023-05-12T18:58:39.826Z,18.30
2023-05-12T19:01:08.241Z,18.30
2023-05-12T19:03:37.257Z,18.30
2023-05-12T19:06:05.732Z,18.30
2023-05-12T19:08:35.547Z,18.30
2023-05-12T19:11:04.642Z,18.20
2023-05-12T19:13:32.901Z,18.30
2023-05-12T19:16:01.285Z,18.20
2023-05-12T19:18:29.682Z,18.20
2023-05-12T19:20:57.837Z,18.20
2023-05-12T19:23:30.088Z,18.10
2023-05-12T19:26:00.211Z,18.10
2023-05-12T19:28:28.818Z,18.10
2023-05-12T19:30:57.189Z,18.10
2023-05-12T19:33:27.218Z,18.10
2023-05-12T19:35:55.909Z,18.10
2023-05-12T19:38:24.164Z,18.10
2023-05-12T19:40:52.425Z,18.00
2023-05-12T19:43:22.020Z,18.00
2023-05-12T19:45:50.440Z,18.00
2023-05-12T19:48:18.717Z,18.00
2023-05-12T19:50:49.096Z,18.00
2023-05-12T19:53:17.424Z,18.00
2023-05-12T19:55:45.796Z,17.90
2023-05-12T19:58:14.119Z,17.90
2023-05-12T20:00:43.920Z,17.90
2023-05-12T20:03:12.461Z,17.90
2023-05-12T20:05:41.206Z,17.90
2023-05-12T20:08:09.651Z,17.90
2023-05-12T20:10:37.802Z,17.90
2023-05-12T20:13:06.145Z,17.90
2023-05-12T20:15:35.234Z,17.90
2023-05-12T20:18:05.333Z,17.80
2023-05-12T20:20:33.817Z,17.80
2023-05-12T20:23:09.066Z,17.80
2023-05-12T20:25:37.808Z,17.80
2023-05-12T20:28:07.120Z,17.80
2023-05-12T20:30:35.747Z,17.80
2023-05-12T20:33:05.597Z,17.80
2023-05-12T20:35:33.915Z,17.70
2023-05-12T20:38:02.930Z,17.70
2023-05-12T20:40:31.216Z,17.70
2023-05-12T20:42:59.511Z,17.70
2023-05-12T20:45:28.170Z,17.70
2023-05-12T20:47:57.131Z,17.70
2023-05-12T20:50:28.146Z,17.70
2023-05-12T20:52:56.410Z,17.70
2023-05-12T20:55:25.618Z,17.70
2023-05-12T20:57:53.901Z,17.60
2023-05-12T21:00:22.654Z,17.60
2023-05-12T21:02:52.333Z,17.60
2023-05-12T21:05:21.356Z,17.60
2023-05-12T21:07:51.229Z,17.60
2023-05-12T21:10:19.960Z,17.60
2023-05-12T21:12:48.448Z,17.50
2023-05-12T21:15:16.776Z,17.60
2023-05-12T21:17:45.099Z,17.50
2023-05-12T21:20:13.897Z,17.50
2023-05-12T21:22:42.381Z,17.50
2023-05-12T21:25:12.208Z,17.50
2023-05-12T21:27:41.634Z,17.40
2023-05-12T21:30:11.151Z,17.40
2023-05-12T21:32:39.661Z,17.40
2023-05-12T21:35:08.665Z,17.40
2023-05-12T21:37:36.973Z,17.40
2023-05-12T21:40:06.088Z,17.30
2023-05-12T21:42:35.862Z,17.30
2023-05-12T21:45:04.230Z,17.30
2023-05-12T21:47:32.470Z,17.30
2023-05-12T21:50:00.860Z,17.30
2023-05-12T21:52:29.190Z,17.30
2023-05-12T21:54:57.499Z,17.30
2023-05-12T21:57:26.077Z,17.20
2023-05-12T21:59:56.313Z,17.20
2023-05-12T22:02:24.725Z,17.20
2023-05-12T22:04:53.429Z,17.20
2023-05-12T22:07:21.690Z,17.20
2023-05-12T22:09:49.927Z,17.10
2023-05-12T22:12:18.653Z,17.10
2023-05-12T22:14:46.890Z,17.10
2023-05-12T22:17:16.895Z,17.00
2023-05-12T22:19:45.146Z,17.00
2023-05-12T22:22:13.578Z,17.00
2023-05-12T22:24:41.731Z,17.00
2023-05-12T22:27:09.980Z,17.00
2023-05-12T22:29:38.211Z,17.00
2023-05-12T22:32:06.849Z,16.90
2023-05-12T22:34:36.518Z,16.80
2023-05-12T22:37:04.807Z,16.80
2023-05-12T22:39:33.041Z,16.70
2023-05-12T22:42:03.088Z,16.70
2023-05-12T22:44:31.347Z,16.60
2023-05-12T22:46:59.578Z,16.60
2023-05-12T22:49:27.923Z,16.50
2023-05-12T22:51:57.489Z,16.50
2023-05-12T22:54:25.738Z,16.40
2023-05-12T22:56:53.942Z,16.40
2023-05-12T22:59:22.132Z,16.30
2023-05-12T23:01:50.429Z,16.30
2023-05-12T23:04:18.883Z,16.20
2023-05-12T23:06:47.271Z,16.20
2023-05-12T23:09:16.870Z,16.10
2023-05-12T23:11:45.245Z,16.10
2023-05-12T23:14:13.505Z,16.00
2023-05-12T23:16:41.754Z,16.00
2023-05-12T23:19:10.009Z,16.00
2023-05-12T23:21:38.376Z,15.90
2023-05-12T23:24:07.162Z,15.90
2023-05-12T23:26:36.772Z,15.90
2023-05-12T23:29:05.243Z,15.80
2023-05-12T23:31:33.508Z,15.80
2023-05-12T23:34:01.760Z,15.80
2023-05-12T23:36:31.394Z,15.80
2023-05-12T23:38:59.664Z,15.70
2023-05-12T23:41:31.642Z,15.70
2023-05-12T23:44:01.427Z,15.70
2023-05-12T23:46:29.863Z,15.70
2023-05-12T23:48:58.210Z,15.60
2023-05-12T23:51:26.466Z,15.60
2023-05-12T23:53:54.806Z,15.60
2023-05-12T23:56:23.480Z,15.60
2023-05-12T23:58:51.760Z,15.60
